sensor_id;sensor_type;location;lat;lon;timestamp;temperature;humidity
15107;DHT22;7654;45.308;-75.096;2023-11-19T00:02:09;0.60;99.90
15107;DHT22;7654;45.308;-75.096;2023-11-19T00:04:41;0.60;99.90
15107;DHT22;7654;45.308;-75.096;2023-11-19T00:07:12;0.70;99.90
15107;DHT22;7654;45.308;-75.096;2023-11-19T00:09:44;0.70;99.90
15107;DHT22;7654;45.308;-75.096;2023-11-19T00:12:15;0.80;99.90
15107;DHT22;7654;45.308;-75.096;2023-11-19T00:14:46;1.00;99.90
15107;DHT22;7654;45.308;-75.096;2023-11-19T00:17:16;1.00;99.90
15107;DHT22;7654;45.308;-75.096;2023-11-19T00:19:48;1.00;99.90
15107;DHT22;7654;45.308;-75.096;2023-11-19T00:22:19;1.10;99.90
15107;DHT22;7654;45.308;-75.096;2023-11-19T00:24:50;1.20;99.90
15107;DHT22;7654;45.308;-75.096;2023-11-19T00:27:21;1.20;99.90
15107;DHT22;7654;45.308;-75.096;2023-11-19T00:29:52;1.30;99.90
15107;DHT22;7654;45.308;-75.096;2023-11-19T00:32:22;1.30;99.90
15107;DHT22;7654;45.308;-75.096;2023-11-19T00:34:57;1.40;99.90
15107;DHT22;7654;45.308;-75.096;2023-11-19T00:37:27;1.50;99.90
15107;DHT22;7654;45.308;-75.096;2023-11-19T00:39:58;1.60;99.90
15107;DHT22;7654;45.308;-75.096;2023-11-19T00:42:30;1.60;99.90
15107;DHT22;7654;45.308;-75.096;2023-11-19T00:45:01;1.70;99.90
15107;DHT22;7654;45.308;-75.096;2023-11-19T00:47:31;1.60;99.90
15107;DHT22;7654;45.308;-75.096;2023-11-19T00:50:05;1.70;99.90
15107;DHT22;7654;45.308;-75.096;2023-11-19T00:52:38;1.70;99.90
15107;DHT22;7654;45.308;-75.096;2023-11-19T00:55:09;1.60;99.90
15107;DHT22;7654;45.308;-75.096;2023-11-19T00:57:40;1.60;99.90
15107;DHT22;7654;45.308;-75.096;2023-11-19T01:00:11;1.60;99.90
15107;DHT22;7654;45.308;-75.096;2023-11-19T01:02:48;1.60;99.90
15107;DHT22;7654;45.308;-75.096;2023-11-19T01:05:21;1.60;99.90
15107;DHT22;7654;45.308;-75.096;2023-11-19T01:07:52;1.60;99.90
15107;DHT22;7654;45.308;-75.096;2023-11-19T01:10:23;1.60;99.90
15107;DHT22;7654;45.308;-75.096;2023-11-19T01:12:54;1.60;99.90
15107;DHT22;7654;45.308;-75.096;2023-11-19T01:15:24;1.60;99.90
15107;DHT22;7654;45.308;-75.096;2023-11-19T01:17:55;1.60;99.90
15107;DHT22;7654;45.308;-75.096;2023-11-19T01:20:27;1.60;99.90
15107;DHT22;7654;45.308;-75.096;2023-11-19T01:22:57;1.60;99.90
15107;DHT22;7654;45.308;-75.096;2023-11-19T01:25:28;1.70;99.90
15107;DHT22;7654;45.308;-75.096;2023-11-19T01:27:58;1.70;99.90
15107;DHT22;7654;45.308;-75.096;2023-11-19T01:30:30;1.70;99.90
15107;DHT22;7654;45.308;-75.096;2023-11-19T01:33:01;1.60;99.90
15107;DHT22;7654;45.308;-75.096;2023-11-19T01:35:37;1.60;99.90
15107;DHT22;7654;45.308;-75.096;2023-11-19T01:38:08;1.60;99.90
15107;DHT22;7654;45.308;-75.096;2023-11-19T01:40:38;1.50;99.90
15107;DHT22;7654;45.308;-75.096;2023-11-19T01:43:09;1.50;99.90
15107;DHT22;7654;45.308;-75.096;2023-11-19T01:45:42;1.50;99.90
15107;DHT22;7654;45.308;-75.096;2023-11-19T01:48:14;1.50;99.90
15107;DHT22;7654;45.308;-75.096;2023-11-19T01:50:46;1.50;99.90
15107;DHT22;7654;45.308;-75.096;2023-11-19T01:53:16;1.60;99.90
15107;DHT22;7654;45.308;-75.096;2023-11-19T01:55:47;1.70;99.90
15107;DHT22;7654;45.308;-75.096;2023-11-19T01:58:18;1.70;99.90
15107;DHT22;7654;45.308;-75.096;2023-11-19T02:00:49;1.80;99.90
15107;DHT22;7654;45.308;-75.096;2023-11-19T02:03:20;1.90;99.90
15107;DHT22;7654;45.308;-75.096;2023-11-19T02:05:53;1.90;99.90
15107;DHT22;7654;45.308;-75.096;2023-11-19T02:08:23;2.10;99.90
15107;DHT22;7654;45.308;-75.096;2023-11-19T02:10:54;2.10;99.90
15107;DHT22;7654;45.308;-75.096;2023-11-19T02:13:25;2.20;99.90
15107;DHT22;7654;45.308;-75.096;2023-11-19T02:15:56;2.20;99.90
15107;DHT22;7654;45.308;-75.096;2023-11-19T02:18:28;2.20;99.90
15107;DHT22;7654;45.308;-75.096;2023-11-19T02:21:00;2.20;99.90
15107;DHT22;7654;45.308;-75.096;2023-11-19T02:23:31;2.20;99.90
15107;DHT22;7654;45.308;-75.096;2023-11-19T02:26:10;2.30;99.90
15107;DHT22;7654;45.308;-75.096;2023-11-19T02:28:45;2.30;99.90
15107;DHT22;7654;45.308;-75.096;2023-11-19T02:31:16;2.20;99.90
15107;DHT22;7654;45.308;-75.096;2023-11-19T02:33:47;2.30;99.90
15107;DHT22;7654;45.308;-75.096;2023-11-19T02:36:18;2.30;99.90
15107;DHT22;7654;45.308;-75.096;2023-11-19T02:38:49;2.40;99.90
15107;DHT22;7654;45.308;-75.096;2023-11-19T02:41:20;2.40;99.90
15107;DHT22;7654;45.308;-75.096;2023-11-19T02:43:52;2.40;99.90
15107;DHT22;7654;45.308;-75.096;2023-11-19T02:46:22;2.40;99.90
15107;DHT22;7654;45.308;-75.096;2023-11-19T02:48:53;2.50;99.90
15107;DHT22;7654;45.308;-75.096;2023-11-19T02:51:23;2.50;99.90
15107;DHT22;7654;45.308;-75.096;2023-11-19T02:53:56;2.50;99.90
15107;DHT22;7654;45.308;-75.096;2023-11-19T02:56:27;2.50;99.90
15107;DHT22;7654;45.308;-75.096;2023-11-19T02:59:04;2.50;99.90
15107;DHT22;7654;45.308;-75.096;2023-11-19T03:01:43;2.40;99.90
15107;DHT22;7654;45.308;-75.096;2023-11-19T03:04:20;2.40;99.90
15107;DHT22;7654;45.308;-75.096;2023-11-19T03:06:52;2.40;99.90
15107;DHT22;7654;45.308;-75.096;2023-11-19T03:09:24;2.40;99.90
15107;DHT22;7654;45.308;-75.096;2023-11-19T03:11:54;2.40;99.90
15107;DHT22;7654;45.308;-75.096;2023-11-19T03:14:27;2.40;99.90
15107;DHT22;7654;45.308;-75.096;2023-11-19T03:16:57;2.40;99.90
15107;DHT22;7654;45.308;-75.096;2023-11-19T03:19:28;2.40;99.90
15107;DHT22;7654;45.308;-75.096;2023-11-19T03:21:59;2.30;99.90
15107;DHT22;7654;45.308;-75.096;2023-11-19T03:24:31;2.20;99.90
15107;DHT22;7654;45.308;-75.096;2023-11-19T03:27:01;2.10;99.90
15107;DHT22;7654;45.308;-75.096;2023-11-19T03:29:34;2.00;99.90
15107;DHT22;7654;45.308;-75.096;2023-11-19T03:32:05;1.90;99.90
15107;DHT22;7654;45.308;-75.096;2023-11-19T03:34:35;1.80;99.90
15107;DHT22;7654;45.308;-75.096;2023-11-19T03:37:06;1.70;99.90
15107;DHT22;7654;45.308;-75.096;2023-11-19T03:39:37;1.60;99.90
15107;DHT22;7654;45.308;-75.096;2023-11-19T03:42:07;1.50;99.90
15107;DHT22;7654;45.308;-75.096;2023-11-19T03:44:39;1.50;99.90
15107;DHT22;7654;45.308;-75.096;2023-11-19T03:47:09;1.40;99.90
15107;DHT22;7654;45.308;-75.096;2023-11-19T03:49:40;1.40;99.90
15107;DHT22;7654;45.308;-75.096;2023-11-19T03:52:10;1.40;99.90
15107;DHT22;7654;45.308;-75.096;2023-11-19T03:54:47;1.50;99.90
15107;DHT22;7654;45.308;-75.096;2023-11-19T03:57:18;1.60;99.90
15107;DHT22;7654;45.308;-75.096;2023-11-19T03:59:50;1.70;99.90
15107;DHT22;7654;45.308;-75.096;2023-11-19T04:02:20;1.60;99.90
15107;DHT22;7654;45.308;-75.096;2023-11-19T04:04:51;1.70;99.90
15107;DHT22;7654;45.308;-75.096;2023-11-19T04:07:21;1.70;99.90
15107;DHT22;7654;45.308;-75.096;2023-11-19T04:09:52;1.70;99.90
15107;DHT22;7654;45.308;-75.096;2023-11-19T04:12:22;1.70;99.90
15107;DHT22;7654;45.308;-75.096;2023-11-19T04:14:54;1.70;99.90
15107;DHT22;7654;45.308;-75.096;2023-11-19T04:17:27;1.70;99.90
15107;DHT22;7654;45.308;-75.096;2023-11-19T04:19:58;1.70;99.90
15107;DHT22;7654;45.308;-75.096;2023-11-19T04:22:28;1.70;99.90
15107;DHT22;7654;45.308;-75.096;2023-11-19T04:24:59;1.70;99.90
15107;DHT22;7654;45.308;-75.096;2023-11-19T04:27:29;1.70;99.90
15107;DHT22;7654;45.308;-75.096;2023-11-19T04:30:01;1.70;99.90
15107;DHT22;7654;45.308;-75.096;2023-11-19T04:32:33;1.70;99.90
15107;DHT22;7654;45.308;-75.096;2023-11-19T04:35:04;1.70;99.90
15107;DHT22;7654;45.308;-75.096;2023-11-19T04:37:35;1.70;99.90
15107;DHT22;7654;45.308;-75.096;2023-11-19T04:40:06;1.70;99.90
15107;DHT22;7654;45.308;-75.096;2023-11-19T04:42:37;1.80;99.90
15107;DHT22;7654;45.308;-75.096;2023-11-19T04:45:10;1.70;99.90
15107;DHT22;7654;45.308;-75.096;2023-11-19T04:47:41;1.70;99.90
15107;DHT22;7654;45.308;-75.096;2023-11-19T04:50:11;1.70;99.90
15107;DHT22;7654;45.308;-75.096;2023-11-19T04:52:41;1.60;99.90
15107;DHT22;7654;45.308;-75.096;2023-11-19T04:55:13;1.70;99.90
15107;DHT22;7654;45.308;-75.096;2023-11-19T04:57:44;1.80;99.90
15107;DHT22;7654;45.308;-75.096;2023-11-19T05:00:16;1.90;99.90
15107;DHT22;7654;45.308;-75.096;2023-11-19T05:02:48;1.90;99.90
15107;DHT22;7654;45.308;-75.096;2023-11-19T05:05:18;2.00;99.90
15107;DHT22;7654;45.308;-75.096;2023-11-19T05:07:49;2.00;99.90
15107;DHT22;7654;45.308;-75.096;2023-11-19T05:10:19;2.00;99.90
15107;DHT22;7654;45.308;-75.096;2023-11-19T05:12:50;1.90;99.90
15107;DHT22;7654;45.308;-75.096;2023-11-19T05:15:22;1.70;99.90
15107;DHT22;7654;45.308;-75.096;2023-11-19T05:17:52;1.70;99.90
15107;DHT22;7654;45.308;-75.096;2023-11-19T05:20:23;1.60;99.90
15107;DHT22;7654;45.308;-75.096;2023-11-19T05:22:53;1.70;99.90
15107;DHT22;7654;45.308;-75.096;2023-11-19T05:25:23;1.70;99.90
15107;DHT22;7654;45.308;-75.096;2023-11-19T05:27:55;1.70;99.90
15107;DHT22;7654;45.308;-75.096;2023-11-19T05:30:27;1.80;99.90
15107;DHT22;7654;45.308;-75.096;2023-11-19T05:32:58;1.80;99.90
15107;DHT22;7654;45.308;-75.096;2023-11-19T05:35:29;1.90;99.90
15107;DHT22;7654;45.308;-75.096;2023-11-19T05:37:59;2.00;99.90
15107;DHT22;7654;45.308;-75.096;2023-11-19T05:40:31;2.00;99.90
15107;DHT22;7654;45.308;-75.096;2023-11-19T05:43:01;2.10;99.90
15107;DHT22;7654;45.308;-75.096;2023-11-19T05:45:33;2.20;99.90
15107;DHT22;7654;45.308;-75.096;2023-11-19T05:48:04;2.30;99.90
15107;DHT22;7654;45.308;-75.096;2023-11-19T05:50:35;2.30;99.90
15107;DHT22;7654;45.308;-75.096;2023-11-19T05:53:05;2.30;99.90
15107;DHT22;7654;45.308;-75.096;2023-11-19T05:55:38;2.30;99.90
15107;DHT22;7654;45.308;-75.096;2023-11-19T05:58:17;2.30;99.90
15107;DHT22;7654;45.308;-75.096;2023-11-19T06:00:49;2.20;99.90
15107;DHT22;7654;45.308;-75.096;2023-11-19T06:03:20;2.20;99.90
15107;DHT22;7654;45.308;-75.096;2023-11-19T06:05:50;2.10;99.90
15107;DHT22;7654;45.308;-75.096;2023-11-19T06:08:21;2.00;99.90
15107;DHT22;7654;45.308;-75.096;2023-11-19T06:10:52;2.00;99.90
15107;DHT22;7654;45.308;-75.096;2023-11-19T06:13:23;2.00;99.90
15107;DHT22;7654;45.308;-75.096;2023-11-19T06:15:55;1.90;99.90
15107;DHT22;7654;45.308;-75.096;2023-11-19T06:18:25;1.90;99.90
15107;DHT22;7654;45.308;-75.096;2023-11-19T06:20:56;2.00;99.90
15107;DHT22;7654;45.308;-75.096;2023-11-19T06:23:27;2.00;99.90
15107;DHT22;7654;45.308;-75.096;2023-11-19T06:25:57;2.10;99.90
15107;DHT22;7654;45.308;-75.096;2023-11-19T06:28:28;2.10;99.90
15107;DHT22;7654;45.308;-75.096;2023-11-19T06:31:00;2.20;99.90
15107;DHT22;7654;45.308;-75.096;2023-11-19T06:33:30;2.20;99.90
15107;DHT22;7654;45.308;-75.096;2023-11-19T06:36:00;2.10;99.90
15107;DHT22;7654;45.308;-75.096;2023-11-19T06:38:31;2.10;99.90
15107;DHT22;7654;45.308;-75.096;2023-11-19T06:41:01;2.10;99.90
15107;DHT22;7654;45.308;-75.096;2023-11-19T06:43:31;2.10;99.90
15107;DHT22;7654;45.308;-75.096;2023-11-19T06:46:15;2.10;99.90
15107;DHT22;7654;45.308;-75.096;2023-11-19T06:48:45;2.10;99.90
15107;DHT22;7654;45.308;-75.096;2023-11-19T06:51:16;2.10;99.90
15107;DHT22;7654;45.308;-75.096;2023-11-19T06:53:46;2.10;99.90
15107;DHT22;7654;45.308;-75.096;2023-11-19T06:56:20;2.10;99.90
15107;DHT22;7654;45.308;-75.096;2023-11-19T06:58:51;2.10;99.90
15107;DHT22;7654;45.308;-75.096;2023-11-19T07:01:23;2.10;99.90
15107;DHT22;7654;45.308;-75.096;2023-11-19T07:03:53;2.00;99.90
15107;DHT22;7654;45.308;-75.096;2023-11-19T07:06:26;2.00;99.90
15107;DHT22;7654;45.308;-75.096;2023-11-19T07:09:00;2.00;99.90
15107;DHT22;7654;45.308;-75.096;2023-11-19T07:11:39;2.00;99.90
15107;DHT22;7654;45.308;-75.096;2023-11-19T07:14:09;1.90;99.90
15107;DHT22;7654;45.308;-75.096;2023-11-19T07:16:42;1.90;99.90
15107;DHT22;7654;45.308;-75.096;2023-11-19T07:19:13;1.80;99.90
15107;DHT22;7654;45.308;-75.096;2023-11-19T07:21:44;1.80;99.90
15107;DHT22;7654;45.308;-75.096;2023-11-19T07:24:14;1.90;99.90
15107;DHT22;7654;45.308;-75.096;2023-11-19T07:26:45;1.80;99.90
15107;DHT22;7654;45.308;-75.096;2023-11-19T07:29:15;1.80;99.90
15107;DHT22;7654;45.308;-75.096;2023-11-19T07:31:51;1.80;99.90
15107;DHT22;7654;45.308;-75.096;2023-11-19T07:34:21;1.80;99.90
15107;DHT22;7654;45.308;-75.096;2023-11-19T07:36:51;1.80;99.90
15107;DHT22;7654;45.308;-75.096;2023-11-19T07:39:22;1.70;99.90
15107;DHT22;7654;45.308;-75.096;2023-11-19T07:41:52;1.60;99.90
15107;DHT22;7654;45.308;-75.096;2023-11-19T07:44:23;1.50;99.90
15107;DHT22;7654;45.308;-75.096;2023-11-19T07:46:55;1.50;99.90
15107;DHT22;7654;45.308;-75.096;2023-11-19T07:49:26;1.30;99.90
15107;DHT22;7654;45.308;-75.096;2023-11-19T07:51:57;1.30;99.90
15107;DHT22;7654;45.308;-75.096;2023-11-19T07:54:28;1.20;99.90
15107;DHT22;7654;45.308;-75.096;2023-11-19T07:56:58;1.10;99.90
15107;DHT22;7654;45.308;-75.096;2023-11-19T07:59:29;1.10;99.90
15107;DHT22;7654;45.308;-75.096;2023-11-19T08:02:01;1.10;99.90
15107;DHT22;7654;45.308;-75.096;2023-11-19T08:04:33;1.10;99.90
15107;DHT22;7654;45.308;-75.096;2023-11-19T08:07:04;1.20;99.90
15107;DHT22;7654;45.308;-75.096;2023-11-19T08:09:35;1.20;99.90
15107;DHT22;7654;45.308;-75.096;2023-11-19T08:12:06;1.20;99.90
15107;DHT22;7654;45.308;-75.096;2023-11-19T08:14:37;1.30;99.90
15107;DHT22;7654;45.308;-75.096;2023-11-19T08:17:09;1.40;99.90
15107;DHT22;7654;45.308;-75.096;2023-11-19T08:19:39;1.40;99.90
15107;DHT22;7654;45.308;-75.096;2023-11-19T08:22:09;1.40;99.90
15107;DHT22;7654;45.308;-75.096;2023-11-19T08:24:40;1.40;99.90
15107;DHT22;7654;45.308;-75.096;2023-11-19T08:27:10;1.40;99.90
15107;DHT22;7654;45.308;-75.096;2023-11-19T08:29:41;1.50;99.90
15107;DHT22;7654;45.308;-75.096;2023-11-19T08:32:13;1.50;99.90
15107;DHT22;7654;45.308;-75.096;2023-11-19T08:34:43;1.60;99.90
15107;DHT22;7654;45.308;-75.096;2023-11-19T08:37:13;1.60;99.90
15107;DHT22;7654;45.308;-75.096;2023-11-19T08:39:46;1.60;99.90
15107;DHT22;7654;45.308;-75.096;2023-11-19T08:42:17;1.50;99.90
15107;DHT22;7654;45.308;-75.096;2023-11-19T08:44:50;1.50;99.90
15107;DHT22;7654;45.308;-75.096;2023-11-19T08:47:24;1.50;99.90
15107;DHT22;7654;45.308;-75.096;2023-11-19T08:49:55;1.40;99.90
15107;DHT22;7654;45.308;-75.096;2023-11-19T08:52:28;1.40;99.90
15107;DHT22;7654;45.308;-75.096;2023-11-19T08:55:02;1.40;99.90
15107;DHT22;7654;45.308;-75.096;2023-11-19T08:57:33;1.40;99.90
15107;DHT22;7654;45.308;-75.096;2023-11-19T09:00:04;1.30;99.90
15107;DHT22;7654;45.308;-75.096;2023-11-19T09:02:38;1.40;99.90
15107;DHT22;7654;45.308;-75.096;2023-11-19T09:05:09;1.50;99.90
15107;DHT22;7654;45.308;-75.096;2023-11-19T09:07:39;1.60;99.90
15107;DHT22;7654;45.308;-75.096;2023-11-19T09:10:10;1.60;99.90
15107;DHT22;7654;45.308;-75.096;2023-11-19T09:12:41;1.60;99.90
15107;DHT22;7654;45.308;-75.096;2023-11-19T09:15:11;1.60;99.90
15107;DHT22;7654;45.308;-75.096;2023-11-19T09:17:43;1.70;99.90
15107;DHT22;7654;45.308;-75.096;2023-11-19T09:20:14;1.60;99.90
15107;DHT22;7654;45.308;-75.096;2023-11-19T09:22:44;1.70;99.90
15107;DHT22;7654;45.308;-75.096;2023-11-19T09:25:15;1.70;99.90
15107;DHT22;7654;45.308;-75.096;2023-11-19T09:27:46;1.70;99.90
15107;DHT22;7654;45.308;-75.096;2023-11-19T09:30:16;1.60;99.90
15107;DHT22;7654;45.308;-75.096;2023-11-19T09:32:48;1.60;99.90
15107;DHT22;7654;45.308;-75.096;2023-11-19T09:35:19;1.70;99.90
15107;DHT22;7654;45.308;-75.096;2023-11-19T09:37:49;1.70;99.90
15107;DHT22;7654;45.308;-75.096;2023-11-19T09:40:19;1.70;99.90
15107;DHT22;7654;45.308;-75.096;2023-11-19T09:42:50;1.60;99.90
15107;DHT22;7654;45.308;-75.096;2023-11-19T09:45:21;1.50;99.90
15107;DHT22;7654;45.308;-75.096;2023-11-19T09:47:57;1.50;99.90
15107;DHT22;7654;45.308;-75.096;2023-11-19T09:50:31;1.50;99.90
15107;DHT22;7654;45.308;-75.096;2023-11-19T09:53:02;1.50;99.90
15107;DHT22;7654;45.308;-75.096;2023-11-19T09:55:33;1.50;99.90
15107;DHT22;7654;45.308;-75.096;2023-11-19T09:58:03;1.40;99.90
15107;DHT22;7654;45.308;-75.096;2023-11-19T10:00:34;1.40;99.90
15107;DHT22;7654;45.308;-75.096;2023-11-19T10:03:07;1.30;99.90
15107;DHT22;7654;45.308;-75.096;2023-11-19T10:05:37;1.20;99.90
15107;DHT22;7654;45.308;-75.096;2023-11-19T10:08:09;1.20;99.90
15107;DHT22;7654;45.308;-75.096;2023-11-19T10:10:39;1.20;99.90
15107;DHT22;7654;45.308;-75.096;2023-11-19T10:13:10;1.10;99.90
15107;DHT22;7654;45.308;-75.096;2023-11-19T10:15:44;1.10;99.90
15107;DHT22;7654;45.308;-75.096;2023-11-19T10:18:16;1.00;99.90
15107;DHT22;7654;45.308;-75.096;2023-11-19T10:20:47;1.00;99.90
15107;DHT22;7654;45.308;-75.096;2023-11-19T10:23:17;1.00;99.90
15107;DHT22;7654;45.308;-75.096;2023-11-19T10:25:48;1.00;99.90
15107;DHT22;7654;45.308;-75.096;2023-11-19T10:28:18;1.00;99.90
15107;DHT22;7654;45.308;-75.096;2023-11-19T10:30:49;1.00;99.90
15107;DHT22;7654;45.308;-75.096;2023-11-19T10:33:30;0.90;99.90
15107;DHT22;7654;45.308;-75.096;2023-11-19T10:36:01;1.00;99.90
15107;DHT22;7654;45.308;-75.096;2023-11-19T10:38:31;1.00;99.90
15107;DHT22;7654;45.308;-75.096;2023-11-19T10:41:02;1.00;99.90
15107;DHT22;7654;45.308;-75.096;2023-11-19T10:43:42;0.90;99.90
15107;DHT22;7654;45.308;-75.096;2023-11-19T10:46:14;0.80;99.90
15107;DHT22;7654;45.308;-75.096;2023-11-19T10:48:50;0.70;99.90
15107;DHT22;7654;45.308;-75.096;2023-11-19T10:51:21;0.70;99.90
15107;DHT22;7654;45.308;-75.096;2023-11-19T10:53:53;0.60;99.90
15107;DHT22;7654;45.308;-75.096;2023-11-19T10:56:26;0.70;99.90
15107;DHT22;7654;45.308;-75.096;2023-11-19T10:59:00;0.70;99.90
15107;DHT22;7654;45.308;-75.096;2023-11-19T11:01:50;0.60;99.90
15107;DHT22;7654;45.308;-75.096;2023-11-19T11:04:25;0.70;99.90
15107;DHT22;7654;45.308;-75.096;2023-11-19T11:06:56;0.70;99.90
15107;DHT22;7654;45.308;-75.096;2023-11-19T11:09:30;0.70;99.90
15107;DHT22;7654;45.308;-75.096;2023-11-19T11:12:01;0.80;99.90
15107;DHT22;7654;45.308;-75.096;2023-11-19T11:14:33;0.80;99.90
15107;DHT22;7654;45.308;-75.096;2023-11-19T11:17:05;0.90;99.90
15107;DHT22;7654;45.308;-75.096;2023-11-19T11:19:38;0.90;99.90
15107;DHT22;7654;45.308;-75.096;2023-11-19T11:22:08;0.90;99.90
15107;DHT22;7654;45.308;-75.096;2023-11-19T11:24:59;0.90;99.90
15107;DHT22;7654;45.308;-75.096;2023-11-19T11:27:48;0.80;99.90
15107;DHT22;7654;45.308;-75.096;2023-11-19T11:30:29;0.70;99.90
15107;DHT22;7654;45.308;-75.096;2023-11-19T11:33:11;0.70;99.90
15107;DHT22;7654;45.308;-75.096;2023-11-19T11:35:53;0.80;99.90
15107;DHT22;7654;45.308;-75.096;2023-11-19T11:38:25;0.90;99.90
15107;DHT22;7654;45.308;-75.096;2023-11-19T11:41:20;0.90;99.90
15107;DHT22;7654;45.308;-75.096;2023-11-19T11:43:56;0.90;99.90
15107;DHT22;7654;45.308;-75.096;2023-11-19T11:46:55;1.00;99.90
15107;DHT22;7654;45.308;-75.096;2023-11-19T11:49:27;0.90;99.90
15107;DHT22;7654;45.308;-75.096;2023-11-19T11:52:00;0.80;99.90
15107;DHT22;7654;45.308;-75.096;2023-11-19T11:54:32;0.70;99.90
15107;DHT22;7654;45.308;-75.096;2023-11-19T11:57:06;0.70;99.90
15107;DHT22;7654;45.308;-75.096;2023-11-19T11:59:46;0.60;99.90
15107;DHT22;7654;45.308;-75.096;2023-11-19T12:02:17;0.60;99.90
15107;DHT22;7654;45.308;-75.096;2023-11-19T12:04:48;0.60;99.90
15107;DHT22;7654;45.308;-75.096;2023-11-19T12:07:23;0.50;99.90
15107;DHT22;7654;45.308;-75.096;2023-11-19T12:10:05;0.40;99.90
15107;DHT22;7654;45.308;-75.096;2023-11-19T12:12:36;0.40;99.90
15107;DHT22;7654;45.308;-75.096;2023-11-19T12:15:09;0.30;99.90
15107;DHT22;7654;45.308;-75.096;2023-11-19T12:17:46;0.30;99.90
15107;DHT22;7654;45.308;-75.096;2023-11-19T12:20:21;0.30;99.90
15107;DHT22;7654;45.308;-75.096;2023-11-19T12:22:56;0.30;99.90
15107;DHT22;7654;45.308;-75.096;2023-11-19T12:25:26;0.30;99.90
15107;DHT22;7654;45.308;-75.096;2023-11-19T12:27:57;0.20;99.90
15107;DHT22;7654;45.308;-75.096;2023-11-19T12:30:28;0.20;99.90
15107;DHT22;7654;45.308;-75.096;2023-11-19T12:32:58;0.30;99.90
15107;DHT22;7654;45.308;-75.096;2023-11-19T12:35:29;0.30;99.90
15107;DHT22;7654;45.308;-75.096;2023-11-19T12:38:01;0.40;99.90
15107;DHT22;7654;45.308;-75.096;2023-11-19T12:40:31;0.40;99.90
15107;DHT22;7654;45.308;-75.096;2023-11-19T12:43:02;0.50;99.90
15107;DHT22;7654;45.308;-75.096;2023-11-19T12:45:35;0.50;99.90
15107;DHT22;7654;45.308;-75.096;2023-11-19T12:48:08;0.60;99.90
15107;DHT22;7654;45.308;-75.096;2023-11-19T12:50:52;0.70;99.90
15107;DHT22;7654;45.308;-75.096;2023-11-19T12:53:26;0.80;99.90
15107;DHT22;7654;45.308;-75.096;2023-11-19T12:55:59;0.80;99.90
15107;DHT22;7654;45.308;-75.096;2023-11-19T12:58:37;0.70;99.90
15107;DHT22;7654;45.308;-75.096;2023-11-19T13:01:07;0.80;99.90
15107;DHT22;7654;45.308;-75.096;2023-11-19T13:03:38;0.80;99.90
15107;DHT22;7654;45.308;-75.096;2023-11-19T13:06:10;0.80;99.90
15107;DHT22;7654;45.308;-75.096;2023-11-19T13:08:43;1.00;99.90
15107;DHT22;7654;45.308;-75.096;2023-11-19T13:11:14;1.20;99.90
15107;DHT22;7654;45.308;-75.096;2023-11-19T13:13:57;1.30;99.90
15107;DHT22;7654;45.308;-75.096;2023-11-19T13:16:28;1.40;99.90
15107;DHT22;7654;45.308;-75.096;2023-11-19T13:18:59;1.40;99.90
15107;DHT22;7654;45.308;-75.096;2023-11-19T13:21:30;1.40;99.90
15107;DHT22;7654;45.308;-75.096;2023-11-19T13:24:02;1.40;99.90
15107;DHT22;7654;45.308;-75.096;2023-11-19T13:26:33;1.40;99.90
15107;DHT22;7654;45.308;-75.096;2023-11-19T13:29:04;1.50;99.90
15107;DHT22;7654;45.308;-75.096;2023-11-19T13:31:35;1.60;99.90
15107;DHT22;7654;45.308;-75.096;2023-11-19T13:34:05;1.60;99.90
15107;DHT22;7654;45.308;-75.096;2023-11-19T13:36:36;1.70;99.90
15107;DHT22;7654;45.308;-75.096;2023-11-19T13:39:08;1.70;99.90
15107;DHT22;7654;45.308;-75.096;2023-11-19T13:41:40;1.80;99.90
15107;DHT22;7654;45.308;-75.096;2023-11-19T13:44:11;2.00;99.90
15107;DHT22;7654;45.308;-75.096;2023-11-19T13:46:41;2.10;99.90
15107;DHT22;7654;45.308;-75.096;2023-11-19T13:49:11;2.20;99.90
15107;DHT22;7654;45.308;-75.096;2023-11-19T13:51:42;2.30;99.90
15107;DHT22;7654;45.308;-75.096;2023-11-19T13:54:14;2.40;99.90
15107;DHT22;7654;45.308;-75.096;2023-11-19T13:56:44;2.50;99.90
15107;DHT22;7654;45.308;-75.096;2023-11-19T13:59:15;2.50;99.90
15107;DHT22;7654;45.308;-75.096;2023-11-19T14:01:45;2.40;99.90
15107;DHT22;7654;45.308;-75.096;2023-11-19T14:04:14;2.30;99.90
15107;DHT22;7654;45.308;-75.096;2023-11-19T14:06:45;2.10;99.90
15107;DHT22;7654;45.308;-75.096;2023-11-19T14:09:18;2.00;99.90
15107;DHT22;7654;45.308;-75.096;2023-11-19T14:11:49;2.00;99.90
15107;DHT22;7654;45.308;-75.096;2023-11-19T14:14:19;2.00;99.90
15107;DHT22;7654;45.308;-75.096;2023-11-19T14:16:49;2.10;99.90
15107;DHT22;7654;45.308;-75.096;2023-11-19T14:19:20;2.10;99.90
15107;DHT22;7654;45.308;-75.096;2023-11-19T14:21:51;2.20;99.90
15107;DHT22;7654;45.308;-75.096;2023-11-19T14:24:23;2.30;99.90
15107;DHT22;7654;45.308;-75.096;2023-11-19T14:26:54;2.30;99.90
15107;DHT22;7654;45.308;-75.096;2023-11-19T14:29:27;2.40;99.90
15107;DHT22;7654;45.308;-75.096;2023-11-19T14:32:00;2.50;99.90
15107;DHT22;7654;45.308;-75.096;2023-11-19T14:34:31;2.50;99.90
15107;DHT22;7654;45.308;-75.096;2023-11-19T14:37:01;2.60;99.90
15107;DHT22;7654;45.308;-75.096;2023-11-19T14:39:34;2.60;99.90
15107;DHT22;7654;45.308;-75.096;2023-11-19T14:42:04;2.70;99.90
15107;DHT22;7654;45.308;-75.096;2023-11-19T14:44:35;2.70;99.90
15107;DHT22;7654;45.308;-75.096;2023-11-19T14:47:05;2.80;99.90
15107;DHT22;7654;45.308;-75.096;2023-11-19T14:49:36;2.80;99.90
15107;DHT22;7654;45.308;-75.096;2023-11-19T14:52:06;3.00;99.90
15107;DHT22;7654;45.308;-75.096;2023-11-19T14:54:42;3.10;99.90
15107;DHT22;7654;45.308;-75.096;2023-11-19T14:57:13;3.20;99.90
15107;DHT22;7654;45.308;-75.096;2023-11-19T14:59:43;3.20;99.90
15107;DHT22;7654;45.308;-75.096;2023-11-19T15:02:14;3.20;99.90
15107;DHT22;7654;45.308;-75.096;2023-11-19T15:04:45;3.10;99.90
15107;DHT22;7654;45.308;-75.096;2023-11-19T15:07:15;3.10;99.90
15107;DHT22;7654;45.308;-75.096;2023-11-19T15:09:48;3.10;99.90
15107;DHT22;7654;45.308;-75.096;2023-11-19T15:12:18;3.00;99.90
15107;DHT22;7654;45.308;-75.096;2023-11-19T15:14:50;3.00;99.90
15107;DHT22;7654;45.308;-75.096;2023-11-19T15:17:21;3.10;99.90
15107;DHT22;7654;45.308;-75.096;2023-11-19T15:19:53;3.10;99.90
15107;DHT22;7654;45.308;-75.096;2023-11-19T15:22:23;3.30;99.90
15107;DHT22;7654;45.308;-75.096;2023-11-19T15:24:57;3.30;99.90
15107;DHT22;7654;45.308;-75.096;2023-11-19T15:27:27;3.30;99.90
15107;DHT22;7654;45.308;-75.096;2023-11-19T15:29:58;3.30;99.90
15107;DHT22;7654;45.308;-75.096;2023-11-19T15:32:29;3.50;99.90
15107;DHT22;7654;45.308;-75.096;2023-11-19T15:35:00;3.50;99.90
15107;DHT22;7654;45.308;-75.096;2023-11-19T15:37:31;3.50;99.90
15107;DHT22;7654;45.308;-75.096;2023-11-19T15:40:03;3.50;99.90
15107;DHT22;7654;45.308;-75.096;2023-11-19T15:42:36;3.60;99.90
15107;DHT22;7654;45.308;-75.096;2023-11-19T15:45:07;3.70;99.90
15107;DHT22;7654;45.308;-75.096;2023-11-19T15:47:38;4.00;99.90
15107;DHT22;7654;45.308;-75.096;2023-11-19T15:50:08;4.40;99.90
15107;DHT22;7654;45.308;-75.096;2023-11-19T15:52:40;4.70;99.90
15107;DHT22;7654;45.308;-75.096;2023-11-19T15:55:14;5.00;99.90
15107;DHT22;7654;45.308;-75.096;2023-11-19T15:57:45;5.20;99.90
15107;DHT22;7654;45.308;-75.096;2023-11-19T16:00:16;5.50;99.90